Time;durP1;ratioP1;P1;durP2;ratioP2;P2;SDS_P1;SDS_P2;PMS_P1;PMS_P2;Temp;Humidity;BMP_temperature;BMP_pressure;BME280_temperature;BME280_humidity;BME280_pressure;Samples;Min_cycle;Max_cycle;Signal;HPM_P1;HPM_P2
2022/05/12 00:00:26;;;;;;;4.90;4.50;;;17.30;99.90;;;;;;5014682;28;20420;-70
2022/05/12 00:02:52;;;;;;;3.70;3.40;;;17.30;99.90;;;;;;5015051;28;20220;-69
2022/05/12 00:05:19;;;;;;;6.67;3.97;;;17.30;99.90;;;;;;5014660;28;20409;-69
2022/05/12 00:07:45;;;;;;;5.67;3.87;;;17.40;99.90;;;;;;5014597;28;20288;-69
2022/05/12 00:10:13;;;;;;;4.23;3.83;;;17.40;99.90;;;;;;5014477;28;20917;-69
2022/05/12 00:12:39;;;;;;;5.90;3.40;;;17.40;99.90;;;;;;5014446;28;20198;-69
2022/05/12 00:15:07;;;;;;;4.00;3.60;;;17.50;99.90;;;;;;5014590;28;20411;-69
2022/05/12 00:17:33;;;;;;;3.13;2.83;;;17.40;99.90;;;;;;5014606;28;20416;-70
2022/05/12 00:19:58;;;;;;;3.77;3.40;;;17.40;99.90;;;;;;5014372;28;20414;-70
2022/05/12 00:22:24;;;;;;;3.43;3.13;;;17.40;99.90;;;;;;5014095;28;20209;-70
2022/05/12 00:24:49;;;;;;;3.37;3.07;;;17.30;99.90;;;;;;5014188;28;20274;-70
2022/05/12 00:27:14;;;;;;;2.87;2.67;;;17.30;99.90;;;;;;5014359;28;20168;-70
2022/05/12 00:29:40;;;;;;;3.07;2.77;;;17.30;99.90;;;;;;5014336;28;20587;-70
2022/05/12 00:32:06;;;;;;;3.53;3.23;;;17.30;99.90;;;;;;5014259;28;20314;-69
2022/05/12 00:34:31;;;;;;;3.70;3.20;;;17.30;99.90;;;;;;5014172;28;20224;-70
2022/05/12 00:36:57;;;;;;;2.90;2.70;;;17.40;99.90;;;;;;5014406;28;20660;-70
2022/05/12 00:39:22;;;;;;;5.53;2.90;;;17.30;99.90;;;;;;5014299;28;20182;-70
2022/05/12 00:41:48;;;;;;;3.60;3.27;;;17.30;99.90;;;;;;5014145;28;20205;-70
2022/05/12 00:44:15;;;;;;;4.23;3.50;;;17.30;99.90;;;;;;5014272;28;20182;-71
2022/05/12 00:46:42;;;;;;;6.07;3.70;;;17.30;99.90;;;;;;5014274;28;20225;-70
2022/05/12 00:49:19;;;;;;;2.77;2.50;;;17.30;99.90;;;;;;5014303;28;20494;-69
2022/05/12 00:51:52;;;;;;;4.00;2.90;;;17.40;99.90;;;;;;5013624;28;20425;-69
2022/05/12 00:54:33;;;;;;;3.60;3.30;;;17.40;99.90;;;;;;5014309;28;20421;-70
2022/05/12 00:56:59;;;;;;;3.63;3.33;;;17.40;99.90;;;;;;5013836;28;20417;-70
2022/05/12 00:59:30;;;;;;;3.47;3.00;;;17.40;99.90;;;;;;5013789;28;20409;-70
2022/05/12 01:01:57;;;;;;;3.17;2.97;;;17.40;99.90;;;;;;5013420;28;20536;-70
2022/05/12 01:04:24;;;;;;;4.20;3.67;;;17.50;99.90;;;;;;5013817;28;20393;-70
2022/05/12 01:06:51;;;;;;;3.33;3.03;;;17.50;99.90;;;;;;5013927;28;20919;-69
2022/05/12 01:09:16;;;;;;;2.83;2.60;;;17.50;99.90;;;;;;5013686;28;20916;-70
2022/05/12 01:11:42;;;;;;;3.10;2.90;;;17.50;99.90;;;;;;5013472;28;20426;-70
2022/05/12 01:14:09;;;;;;;3.50;3.00;;;17.60;99.90;;;;;;5012025;28;20272;-70
2022/05/12 01:16:45;;;;;;;4.43;3.73;;;17.50;99.90;;;;;;5013454;28;20466;-70
2022/05/12 01:19:18;;;;;;;4.40;3.10;;;17.60;99.90;;;;;;5013413;28;20395;-70
2022/05/12 01:21:45;;;;;;;4.87;3.10;;;17.60;99.90;;;;;;5013136;28;20958;-70
2022/05/12 01:24:11;;;;;;;4.07;3.20;;;17.60;99.90;;;;;;5013188;28;20402;-70
2022/05/12 01:26:38;;;;;;;5.83;3.53;;;17.70;99.90;;;;;;5012860;28;20405;-70
2022/05/12 01:29:04;;;;;;;4.60;2.50;;;17.80;99.90;;;;;;4995548;28;20424;-70
2022/05/12 01:31:30;;;;;;;2.40;2.20;;;18.00;99.90;;;;;;5012817;28;20424;-70
2022/05/12 01:33:56;;;;;;;4.07;3.17;;;18.10;99.90;;;;;;5013367;28;20452;-70
2022/05/12 01:36:22;;;;;;;5.90;2.27;;;18.10;99.90;;;;;;5012906;28;20762;-70
2022/05/12 01:38:48;;;;;;;2.40;2.20;;;17.90;99.90;;;;;;5012845;28;20210;-69
2022/05/12 01:41:15;;;;;;;3.63;3.33;;;18.00;99.90;;;;;;4994858;28;20200;-69
2022/05/12 01:43:41;;;;;;;3.37;3.07;;;17.80;99.90;;;;;;5012344;28;20444;-69
2022/05/12 01:46:06;;;;;;;3.30;2.83;;;17.60;99.90;;;;;;5012880;28;20912;-70
2022/05/12 01:48:32;;;;;;;3.40;2.60;;;17.40;99.90;;;;;;5012741;28;20168;-70
2022/05/12 01:50:58;;;;;;;3.63;3.33;;;17.20;99.90;;;;;;5012556;28;20169;-70
2022/05/12 01:53:23;;;;;;;4.47;2.83;;;17.10;99.90;;;;;;5012379;28;20195;-70
2022/05/12 01:55:49;;;;;;;6.03;3.53;;;17.20;99.90;;;;;;5012361;28;20412;-70
2022/05/12 01:58:16;;;;;;;4.50;3.60;;;17.20;99.90;;;;;;5012569;28;20183;-69
2022/05/12 02:00:42;;;;;;;3.60;3.07;;;17.10;99.90;;;;;;5012676;28;20644;-70
2022/05/12 02:03:07;;;;;;;6.07;4.00;;;17.00;99.90;;;;;;5012428;28;20468;-69
2022/05/12 02:05:35;;;;;;;3.37;3.07;;;16.90;99.90;;;;;;5012227;28;20168;-69
2022/05/12 02:08:01;;;;;;;3.80;3.47;;;16.80;99.90;;;;;;5012322;28;20550;-69
2022/05/12 02:10:29;;;;;;;3.40;3.10;;;16.70;99.90;;;;;;5012267;28;20403;-69
2022/05/12 02:12:55;;;;;;;3.13;2.83;;;16.60;99.90;;;;;;5012075;28;20192;-70
2022/05/12 02:15:21;;;;;;;3.70;3.40;;;16.60;99.90;;;;;;5012128;28;20421;-70
2022/05/12 02:17:48;;;;;;;4.13;2.73;;;16.60;99.90;;;;;;5012210;28;20173;-70
2022/05/12 02:20:13;;;;;;;2.80;2.60;;;16.70;99.90;;;;;;5012525;28;20251;-71
2022/05/12 02:22:39;;;;;;;2.87;2.67;;;16.70;99.90;;;;;;5012148;28;20559;-70
2022/05/12 02:25:06;;;;;;;4.67;4.00;;;16.70;99.90;;;;;;5012863;28;20175;-69
2022/05/12 02:27:32;;;;;;;4.77;3.00;;;16.50;99.90;;;;;;5012536;28;20169;-69
2022/05/12 02:29:57;;;;;;;3.20;3.00;;;16.30;99.90;;;;;;5012135;28;20403;-70
2022/05/12 02:32:23;;;;;;;3.23;2.93;;;16.10;99.90;;;;;;5012111;28;20492;-72
2022/05/12 02:34:48;;;;;;;5.37;3.93;;;15.90;99.90;;;;;;5012096;28;20169;-71
2022/05/12 02:37:14;;;;;;;4.30;3.43;;;15.80;99.90;;;;;;5012383;28;20527;-71
2022/05/12 02:39:41;;;;;;;6.50;3.57;;;15.80;99.90;;;;;;5011948;28;20226;-72
2022/05/12 02:42:08;;;;;;;3.50;3.20;;;15.70;99.90;;;;;;5011903;28;20212;-73
2022/05/12 02:44:34;;;;;;;4.07;3.63;;;15.60;99.90;;;;;;5011745;28;20423;-73
2022/05/12 02:47:00;;;;;;;4.73;4.30;;;15.50;99.90;;;;;;5011828;28;20906;-72
2022/05/12 02:49:25;;;;;;;6.13;3.57;;;15.50;99.90;;;;;;5011925;28;20457;-71
2022/05/12 02:51:52;;;;;;;6.20;3.00;;;15.40;99.90;;;;;;5011790;28;20207;-71
2022/05/12 02:54:18;;;;;;;3.23;2.97;;;15.40;99.90;;;;;;5011363;28;20208;-71
2022/05/12 02:56:44;;;;;;;7.83;3.80;;;15.40;99.90;;;;;;5011458;28;20407;-71
2022/05/12 02:59:10;;;;;;;4.40;3.70;;;15.30;99.90;;;;;;5011597;28;20419;-72
2022/05/12 03:01:36;;;;;;;4.43;3.37;;;15.20;99.90;;;;;;5011125;28;20211;-72
2022/05/12 03:04:02;;;;;;;3.90;3.13;;;15.10;99.90;;;;;;5011643;28;20923;-72
2022/05/12 03:06:28;;;;;;;3.30;3.00;;;15.00;99.90;;;;;;5011470;28;20411;-72
2022/05/12 03:08:53;;;;;;;3.53;3.23;;;15.00;99.90;;;;;;5011708;28;20184;-72
2022/05/12 03:11:20;;;;;;;3.10;2.73;;;15.00;99.90;;;;;;5011559;28;20176;-72
2022/05/12 03:13:46;;;;;;;3.70;3.40;;;15.00;99.90;;;;;;5011697;28;20236;-72
2022/05/12 03:16:12;;;;;;;5.07;3.07;;;15.00;99.90;;;;;;5011557;28;20712;-72
2022/05/12 03:18:39;;;;;;;5.37;4.03;;;15.00;99.90;;;;;;5011631;28;20411;-71
2022/05/12 03:21:05;;;;;;;3.20;3.00;;;15.00;99.90;;;;;;5011364;28;20176;-71
2022/05/12 03:23:30;;;;;;;5.10;2.90;;;15.00;99.90;;;;;;5011454;28;20435;-71
2022/05/12 03:25:57;;;;;;;4.80;3.40;;;15.00;99.90;;;;;;5011550;28;20160;-71
2022/05/12 03:28:23;;;;;;;4.53;3.30;;;15.00;99.90;;;;;;5011592;28;20744;-71
2022/05/12 03:30:49;;;;;;;6.27;3.00;;;15.00;99.90;;;;;;5011560;28;20636;-72
2022/05/12 03:33:15;;;;;;;2.93;2.73;;;15.00;99.90;;;;;;5011322;28;20203;-72
2022/05/12 03:35:41;;;;;;;3.90;3.50;;;14.90;99.90;;;;;;5011066;28;20859;-72
2022/05/12 03:38:06;;;;;;;4.63;3.53;;;14.90;99.90;;;;;;5011152;28;20411;-72
2022/05/12 03:40:32;;;;;;;4.00;3.60;;;15.00;99.90;;;;;;5011349;28;20273;-72
2022/05/12 03:42:58;;;;;;;4.47;4.07;;;15.00;99.90;;;;;;5011146;28;20212;-71
2022/05/12 03:45:25;;;;;;;3.90;3.37;;;15.00;99.90;;;;;;5010980;28;20176;-71
2022/05/12 03:47:51;;;;;;;3.83;3.53;;;14.90;99.90;;;;;;5010996;28;20933;-71
2022/05/12 03:50:20;;;;;;;3.37;3.07;;;14.90;99.90;;;;;;5010884;28;20398;-71
2022/05/12 03:52:47;;;;;;;3.60;3.30;;;14.80;99.90;;;;;;5010862;28;20188;-70
2022/05/12 03:55:16;;;;;;;4.67;3.03;;;14.90;99.90;;;;;;5010913;28;20415;-71
2022/05/12 03:57:42;;;;;;;6.47;3.27;;;15.00;99.90;;;;;;5011018;28;20411;-72
2022/05/12 04:00:09;;;;;;;9.40;2.57;;;14.80;99.90;;;;;;5011034;28;20824;-71
2022/05/12 04:02:35;;;;;;;3.20;2.40;;;14.80;99.90;;;;;;5010253;28;20830;-71
2022/05/12 04:05:00;;;;;;;3.00;2.80;;;15.00;99.90;;;;;;5011248;28;20407;-70
2022/05/12 04:07:26;;;;;;;3.30;2.80;;;14.90;99.90;;;;;;5013600;28;20502;-71
2022/05/12 04:09:52;;;;;;;4.43;2.70;;;15.00;99.90;;;;;;5014684;28;20247;-71
2022/05/12 04:12:18;;;;;;;8.53;4.40;;;14.80;99.90;;;;;;5014398;28;20184;-71
2022/05/12 04:14:44;;;;;;;3.77;3.00;;;14.70;99.90;;;;;;5014201;28;20657;-71
2022/05/12 04:17:13;;;;;;;3.50;3.20;;;14.80;99.90;;;;;;5014301;28;20498;-71
2022/05/12 04:19:39;;;;;;;3.00;2.70;;;14.80;99.90;;;;;;5014470;28;20220;-71
2022/05/12 04:22:04;;;;;;;3.17;2.80;;;14.80;99.90;;;;;;5014261;28;20494;-71
2022/05/12 04:24:30;;;;;;;2.40;2.20;;;14.90;99.90;;;;;;5014212;28;20435;-71
2022/05/12 04:26:56;;;;;;;3.20;2.70;;;15.00;99.90;;;;;;5014254;28;20318;-71
2022/05/12 04:29:21;;;;;;;2.50;2.30;;;15.00;99.90;;;;;;5014238;28;20215;-70
2022/05/12 04:31:47;;;;;;;3.00;2.50;;;14.90;99.90;;;;;;5014031;28;20675;-70
2022/05/12 04:36:57;;;;;;;10.20;3.30;;;15.00;99.90;;;;;;5014553;28;20230;-70
2022/05/12 04:39:22;;;;;;;2.80;1.70;;;15.20;99.90;;;;;;5014544;28;20412;-70
2022/05/12 04:41:48;;;;;;;4.47;2.40;;;15.30;99.90;;;;;;5013879;28;20582;-72
2022/05/12 04:44:14;;;;;;;3.63;2.60;;;15.30;99.90;;;;;;5013865;28;20663;-71
2022/05/12 04:46:40;;;;;;;5.13;2.07;;;15.00;99.90;;;;;;5013761;28;20179;-72
2022/05/12 04:49:07;;;;;;;4.33;2.40;;;15.00;99.90;;;;;;5013795;28;20719;-72
2022/05/12 04:51:33;;;;;;;7.33;2.50;;;15.10;99.90;;;;;;5013960;28;20430;-71
2022/05/12 04:53:59;;;;;;;2.70;2.50;;;15.00;99.90;;;;;;4996363;28;20415;-71
2022/05/12 04:56:25;;;;;;;5.83;2.00;;;15.00;99.90;;;;;;5013901;28;20168;-71
2022/05/12 04:58:51;;;;;;;2.87;2.53;;;15.30;99.90;;;;;;5013800;28;20461;-71
2022/05/12 05:01:16;;;;;;;2.00;1.70;;;15.80;99.90;;;;;;5013549;28;20191;-71
2022/05/12 05:03:42;;;;;;;2.90;2.43;;;15.60;99.90;;;;;;5013843;28;20680;-71
2022/05/12 05:06:08;;;;;;;1.93;1.73;;;15.70;99.90;;;;;;5013998;28;20177;-71
2022/05/12 05:08:34;;;;;;;2.30;2.10;;;15.70;99.90;;;;;;4995866;28;20646;-71
2022/05/12 05:10:59;;;;;;;3.37;1.50;;;15.70;99.90;;;;;;5013502;28;20421;-71
2022/05/12 05:13:25;;;;;;;3.77;1.80;;;16.00;99.90;;;;;;5013443;28;20425;-71
2022/05/12 05:15:51;;;;;;;3.20;1.73;;;16.50;99.90;;;;;;5013187;28;20667;-71
2022/05/12 05:18:19;;;;;;;2.70;1.67;;;16.40;99.90;;;;;;4995262;28;20214;-69
2022/05/12 05:20:46;;;;;;;4.33;1.90;;;17.00;99.90;;;;;;5013760;28;20403;-70
2022/05/12 05:23:12;;;;;;;2.07;1.63;;;16.90;99.90;;;;;;5013661;28;20460;-70
2022/05/12 05:25:39;;;;;;;3.33;1.93;;;16.50;99.90;;;;;;5013734;28;20445;-70
2022/05/12 05:28:06;;;;;;;3.37;2.00;;;16.70;99.90;;;;;;5013771;28;20487;-71
2022/05/12 05:30:33;;;;;;;2.30;1.67;;;16.60;99.90;;;;;;5013701;28;20800;-72
2022/05/12 05:32:58;;;;;;;2.40;1.53;;;16.50;99.90;;;;;;5014109;28;20433;-71
2022/05/12 05:35:24;;;;;;;1.80;1.40;;;16.60;99.90;;;;;;5013970;28;20411;-72
2022/05/12 05:37:52;;;;;;;3.40;1.83;;;16.90;99.90;;;;;;5014631;28;20912;-71
2022/05/12 05:40:21;;;;;;;1.30;1.20;;;16.90;99.90;;;;;;5007264;28;20436;-70
2022/05/12 05:42:47;;;;;;;1.43;1.33;;;16.60;99.90;;;;;;5001724;28;20454;-70
2022/05/12 05:45:15;;;;;;;1.60;1.30;;;16.60;99.90;;;;;;4995066;28;20410;-70
2022/05/12 05:47:46;;;;;;;1.73;1.00;;;17.30;99.90;;;;;;4994428;28;20521;-70
2022/05/12 05:50:20;;;;;;;1.67;1.57;;;17.50;99.90;;;;;;4999753;28;20437;-71
2022/05/12 05:55:31;;;;;;;1.63;1.20;;;16.70;99.90;;;;;;5013500;28;20479;-71
2022/05/12 05:58:01;;;;;;;2.40;0.97;;;17.30;99.90;;;;;;5012187;28;20418;-71
2022/05/12 06:00:27;;;;;;;38.13;19.90;;;16.90;99.90;;;;;;5013083;28;20443;-70
2022/05/12 06:02:53;;;;;;;6.33;2.63;;;17.70;99.90;;;;;;5013169;28;20468;-71
2022/05/12 06:05:19;;;;;;;2.03;1.13;;;18.50;99.90;;;;;;5013021;28;20408;-71
2022/05/12 06:07:45;;;;;;;2.33;1.33;;;18.20;99.90;;;;;;5012843;28;20165;-71
2022/05/12 06:10:11;;;;;;;3.83;1.83;;;18.00;99.90;;;;;;5012908;28;20192;-72
2022/05/12 06:12:38;;;;;;;1.97;1.03;;;17.60;99.90;;;;;;5012552;28;20436;-70
2022/05/12 06:15:04;;;;;;;1.10;0.80;;;18.30;99.90;;;;;;5011451;28;20446;-70
2022/05/12 06:17:30;;;;;;;0.93;0.83;;;18.30;99.90;;;;;;5012776;28;20417;-70
2022/05/12 06:19:55;;;;;;;1.70;1.00;;;18.90;99.90;;;;;;5012452;28;20428;-71
2022/05/12 06:22:21;;;;;;;1.20;0.83;;;19.40;99.90;;;;;;5012071;28;20223;-71
2022/05/12 06:24:50;;;;;;;1.70;0.90;;;18.10;99.90;;;;;;5012520;28;20532;-71
2022/05/12 06:27:19;;;;;;;1.73;1.10;;;17.20;99.90;;;;;;5012660;28;20209;-72
2022/05/12 06:29:45;;;;;;;2.40;1.00;;;16.80;99.90;;;;;;5012403;28;20404;-71
2022/05/12 06:32:10;;;;;;;1.67;1.00;;;17.10;99.90;;;;;;5012160;28;20440;-70
2022/05/12 06:34:36;;;;;;;2.13;1.00;;;16.80;99.90;;;;;;5012387;28;20694;-70
2022/05/12 06:37:03;;;;;;;0.97;0.90;;;16.60;99.90;;;;;;5012164;28;20162;-70
2022/05/12 06:39:29;;;;;;;2.13;1.10;;;16.70;99.90;;;;;;5012310;28;20182;-70
2022/05/12 06:41:55;;;;;;;3.33;1.00;;;16.10;99.90;;;;;;5011790;28;20461;-71
2022/05/12 06:44:20;;;;;;;2.40;1.20;;;16.40;99.90;;;;;;5011898;28;20416;-70
2022/05/12 06:46:46;;;;;;;1.33;1.00;;;17.50;99.90;;;;;;5011922;28;20176;-70
2022/05/12 06:49:11;;;;;;;0.80;0.80;;;17.80;99.90;;;;;;5003866;28;20176;-70
2022/05/12 06:51:39;;;;;;;2.37;1.70;;;17.10;99.90;;;;;;5011903;28;20713;-70
2022/05/12 06:54:05;;;;;;;3.17;1.13;;;17.40;99.90;;;;;;5012092;28;20167;-70
2022/05/12 06:56:30;;;;;;;1.73;1.10;;;18.00;99.90;;;;;;5012037;28;20431;-70
2022/05/12 06:58:55;;;;;;;0.73;0.73;;;18.60;99.90;;;;;;5012090;28;20174;-70
2022/05/12 07:01:21;;;;;;;1.50;0.87;;;19.30;99.90;;;;;;5011799;28;20173;-70
2022/05/12 07:03:46;;;;;;;1.30;0.70;;;18.40;99.90;;;;;;5012070;28;20216;-70
2022/05/12 07:06:12;;;;;;;0.80;0.60;;;18.10;99.90;;;;;;5011800;28;20165;-71
2022/05/12 07:08:42;;;;;;;0.70;0.60;;;18.30;99.90;;;;;;5012126;28;20595;-70
2022/05/12 07:11:09;;;;;;;2.17;1.03;;;18.80;99.90;;;;;;5012224;28;20163;-70
2022/05/12 07:13:34;;;;;;;1.40;0.77;;;18.20;99.90;;;;;;5011863;28;20919;-69
2022/05/12 07:16:01;;;;;;;0.60;0.60;;;18.10;99.90;;;;;;4993776;28;20407;-69
2022/05/12 07:18:27;;;;;;;0.87;0.80;;;18.20;99.90;;;;;;5002764;28;20825;-71
2022/05/12 07:26:36;;;;;;;0.93;0.63;;;18.00;99.90;;;;;;5011981;28;20409;-70
2022/05/12 07:29:04;;;;;;;2.87;0.80;;;19.90;99.90;;;;;;5011612;28;20491;-70
2022/05/12 07:31:29;;;;;;;0.80;0.60;;;19.60;99.90;;;;;;5011657;28;20414;-70
2022/05/12 07:33:57;;;;;;;0.73;0.73;;;19.20;99.90;;;;;;5011668;28;20480;-70
2022/05/12 07:36:28;;;;;;;1.17;0.70;;;18.70;99.90;;;;;;5011714;28;20183;-70
2022/05/12 07:38:55;;;;;;;0.60;0.60;;;19.30;99.90;;;;;;5011713;28;20419;-70
2022/05/12 07:41:22;;;;;;;0.80;0.70;;;19.40;99.90;;;;;;5005746;28;20417;-70
2022/05/12 07:43:48;;;;;;;0.70;0.70;;;18.60;99.90;;;;;;5014999;28;20426;-70
2022/05/12 07:46:16;;;;;;;1.07;0.80;;;18.20;99.90;;;;;;5015107;28;20413;-69
2022/05/12 07:48:42;;;;;;;2.20;0.80;;;18.20;99.90;;;;;;5014563;28;20605;-70
2022/05/12 07:51:09;;;;;;;1.93;0.80;;;17.80;99.90;;;;;;5015184;28;20424;-70
2022/05/12 07:53:35;;;;;;;0.87;0.80;;;18.10;99.90;;;;;;4996283;28;21003;-69
2022/05/12 07:56:01;;;;;;;0.90;0.70;;;18.50;99.90;;;;;;4995731;28;20412;-70
2022/05/12 07:58:26;;;;;;;1.53;0.60;;;18.20;99.90;;;;;;4995629;28;20912;-70
2022/05/12 08:00:53;;;;;;;1.03;0.90;;;18.40;99.90;;;;;;4995710;28;20587;-70
2022/05/12 08:03:19;;;;;;;2.93;1.00;;;18.30;99.90;;;;;;4995403;28;20305;-70
2022/05/12 08:05:45;;;;;;;5.47;1.30;;;17.90;99.90;;;;;;4995333;28;20903;-70
2022/05/12 08:08:11;;;;;;;0.80;0.80;;;17.90;99.90;;;;;;4995394;28;20420;-69
2022/05/12 08:10:37;;;;;;;1.60;0.90;;;17.20;99.90;;;;;;5002767;28;20582;-70
2022/05/12 08:13:03;;;;;;;0.90;0.80;;;17.10;99.90;;;;;;5014636;28;20434;-69
2022/05/12 08:15:28;;;;;;;0.70;0.70;;;16.70;99.90;;;;;;5014934;28;20469;-69
2022/05/12 08:17:56;;;;;;;1.60;1.20;;;16.90;99.90;;;;;;5014944;28;20698;-70
2022/05/12 08:20:23;;;;;;;2.00;0.80;;;17.10;99.90;;;;;;5014848;28;20171;-70
2022/05/12 08:22:48;;;;;;;1.93;1.10;;;16.60;99.90;;;;;;5014636;28;20471;-70
2022/05/12 08:25:15;;;;;;;0.70;0.70;;;17.10;99.90;;;;;;5014703;28;20399;-69
2022/05/12 08:27:40;;;;;;;1.30;1.00;;;17.90;99.90;;;;;;5007021;28;20186;-69
2022/05/12 08:30:10;;;;;;;0.70;0.70;;;17.90;99.90;;;;;;4995138;28;20925;-70
2022/05/12 08:32:36;;;;;;;0.80;0.73;;;18.00;99.90;;;;;;4995034;28;20205;-70
2022/05/12 08:35:02;;;;;;;0.70;0.70;;;17.70;99.90;;;;;;4995042;28;20559;-69
2022/05/12 08:37:27;;;;;;;1.40;0.70;;;17.20;99.90;;;;;;4995075;28;20173;-70
2022/05/12 08:39:54;;;;;;;0.60;0.60;;;18.20;99.90;;;;;;4994919;28;20794;-70
2022/05/12 08:42:43;;;;;;;0.70;0.70;;;19.00;99.90;;;;;;5013772;28;20765;-71
2022/05/12 08:45:11;;;;;;;1.23;0.70;;;18.70;99.90;;;;;;5014187;28;20416;-70
2022/05/12 08:47:45;;;;;;;0.80;0.70;;;19.60;99.90;;;;;;5014970;28;20411;-70
2022/05/12 08:50:27;;;;;;;0.93;0.73;;;19.60;99.90;;;;;;4997393;28;20424;-71
2022/05/12 08:52:57;;;;;;;0.70;0.60;;;20.30;99.90;;;;;;4999572;28;20435;-72
2022/05/12 08:55:37;;;;;;;1.30;0.70;;;20.00;99.90;;;;;;4998984;28;20419;-71
2022/05/12 08:58:16;;;;;;;0.90;0.90;;;19.50;99.90;;;;;;4999375;28;20530;-71
2022/05/12 09:01:01;;;;;;;0.70;0.70;;;19.80;99.90;;;;;;4995169;28;20413;-71
2022/05/12 09:03:50;;;;;;;0.77;0.70;;;20.70;99.90;;;;;;4994218;28;20514;-71
2022/05/12 09:06:25;;;;;;;0.80;0.70;;;20.30;99.90;;;;;;4994767;28;20412;-71
2022/05/12 09:09:10;;;;;;;0.70;0.70;;;21.00;99.90;;;;;;4994398;28;20410;-70
2022/05/12 09:12:23;;;;;;;3.73;0.60;;;21.00;99.60;;;;;;4994137;28;20432;-69
2022/05/12 09:15:03;;;;;;;0.70;0.70;;;21.20;98.00;;;;;;4992416;22;20492;-69
2022/05/12 09:17:46;;;;;;;1.53;0.80;;;21.10;99.90;;;;;;5047606;28;20448;-70
2022/05/12 09:20:13;;;;;;;0.90;0.70;;;21.20;97.40;;;;;;5055931;28;20393;-69
2022/05/12 09:22:41;;;;;;;1.00;0.70;;;20.10;99.10;;;;;;5055775;28;20989;-69
2022/05/12 09:25:07;;;;;;;2.60;1.07;;;20.10;99.70;;;;;;5054994;28;20432;-70
2022/05/12 09:27:36;;;;;;;1.83;0.60;;;21.10;98.00;;;;;;5055633;28;20413;-70
2022/05/12 09:30:05;;;;;;;1.20;0.90;;;21.40;96.70;;;;;;5049049;28;20405;-70
2022/05/12 09:32:34;;;;;;;1.17;0.83;;;20.10;97.20;;;;;;5056436;28;20419;-69
2022/05/12 09:35:08;;;;;;;0.80;0.80;;;21.00;98.30;;;;;;5055788;28;20429;-69
2022/05/12 09:37:36;;;;;;;1.47;0.97;;;19.10;99.00;;;;;;5058727;28;20836;-69
2022/05/12 09:40:39;;;;;;;0.80;0.70;;;19.10;99.90;;;;;;5059716;28;20417;-69
2022/05/12 09:43:26;;;;;;;1.47;0.70;;;19.20;98.90;;;;;;5041631;28;20991;-70
2022/05/12 09:46:07;;;;;;;0.80;0.70;;;19.50;99.70;;;;;;5059572;28;20457;-70
2022/05/12 09:48:36;;;;;;;0.80;0.70;;;19.30;99.90;;;;;;5060862;28;20407;-70
2022/05/12 09:51:25;;;;;;;0.93;0.80;;;20.00;98.40;;;;;;5059435;28;20412;-69
2022/05/12 09:53:53;;;;;;;0.70;0.70;;;19.20;97.20;;;;;;5058535;28;20454;-69
2022/05/12 09:56:32;;;;;;;0.93;0.87;;;19.00;98.20;;;;;;5058640;28;20437;-70
2022/05/12 09:59:13;;;;;;;1.00;0.80;;;18.70;99.70;;;;;;5056619;28;20396;-69
2022/05/12 10:01:55;;;;;;;1.57;0.93;;;18.90;99.90;;;;;;5055094;28;20963;-69
2022/05/12 10:10:11;;;;;;;1.00;0.90;;;19.30;98.00;;;;;;5055208;28;20407;-70
2022/05/12 10:12:46;;;;;;;1.50;1.00;;;19.40;96.90;;;;;;5055788;28;20408;-69
2022/05/12 10:15:25;;;;;;;0.87;0.80;;;19.10;95.90;;;;;;5055033;28;20457;-70
2022/05/12 10:17:59;;;;;;;1.00;0.80;;;19.00;95.10;;;;;;5057672;28;20401;-70
2022/05/12 10:20:27;;;;;;;0.97;0.70;;;19.00;95.30;;;;;;5038740;28;20764;-70
2022/05/12 10:23:02;;;;;;;2.90;1.30;;;19.30;93.50;;;;;;5056939;28;20503;-70
2022/05/12 10:26:02;;;;;;;0.77;0.77;;;19.10;94.20;;;;;;5056586;28;20519;-70
2022/05/12 10:29:02;;;;;;;1.90;1.07;;;19.30;94.40;;;;;;5037116;28;20474;-69
2022/05/12 10:32:10;;;;;;;2.43;1.50;;;19.10;94.00;;;;;;5036281;28;20409;-70
2022/05/12 10:35:04;;;;;;;1.10;1.00;;;19.20;93.90;;;;;;5036886;28;20421;-68
2022/05/12 10:37:40;;;;;;;1.10;1.00;;;19.40;94.40;;;;;;5037845;28;20378;-68
2022/05/12 10:40:29;;;;;;;1.13;1.03;;;18.80;94.20;;;;;;5039575;28;20400;-69
2022/05/12 10:43:16;;;;;;;0.87;0.77;;;19.00;95.50;;;;;;5036950;28;20446;-69
2022/05/12 10:45:52;;;;;;;1.03;0.90;;;19.00;94.80;;;;;;5035088;28;20441;-69
2022/05/12 10:48:22;;;;;;;1.00;0.90;;;19.60;93.80;;;;;;5040664;28;20917;-71
2022/05/12 10:50:57;;;;;;;1.27;0.97;;;19.00;94.10;;;;;;5056076;28;20864;-69
2022/05/12 10:53:58;;;;;;;0.80;0.80;;;19.40;94.40;;;;;;5056717;28;20417;-69
2022/05/12 10:56:35;;;;;;;1.03;0.90;;;19.70;93.80;;;;;;5057559;28;20953;-70
2022/05/12 10:59:12;;;;;;;2.77;0.80;;;19.40;93.20;;;;;;5055515;28;20428;-69
2022/05/12 11:01:44;;;;;;;1.00;0.90;;;19.80;94.20;;;;;;5056020;28;20465;-69
2022/05/12 11:04:14;;;;;;;1.23;0.90;;;19.70;94.20;;;;;;5051923;28;20460;-69
2022/05/12 11:06:58;;;;;;;1.13;1.07;;;19.90;94.70;;;;;;5051821;28;20919;-69
2022/05/12 11:09:31;;;;;;;0.87;0.80;;;19.40;93.20;;;;;;5055568;28;20435;-69
2022/05/12 11:12:01;;;;;;;1.30;0.73;;;19.10;94.00;;;;;;5054874;28;20403;-69
2022/05/12 11:14:34;;;;;;;1.53;0.80;;;18.80;95.60;;;;;;5038830;28;20417;-68
2022/05/12 11:17:16;;;;;;;1.00;0.80;;;19.40;95.60;;;;;;5057645;28;20416;-69
2022/05/12 11:19:47;;;;;;;0.70;0.70;;;18.90;93.80;;;;;;5058844;28;20990;-69
2022/05/12 11:22:35;;;;;;;1.43;0.80;;;19.50;94.70;;;;;;5059195;28;20927;-70
2022/05/12 11:25:19;;;;;;;1.20;1.00;;;19.30;93.40;;;;;;5059221;28;20845;-70
2022/05/12 11:31:26;;;;;;;0.80;0.80;;;20.10;95.70;;;;;;5057238;28;20423;-69
2022/05/12 11:33:57;;;;;;;1.70;0.80;;;20.50;93.60;;;;;;5033594;28;20498;-70
2022/05/12 11:36:40;;;;;;;1.10;1.00;;;20.50;93.50;;;;;;5060080;28;20425;-70
2022/05/12 11:39:29;;;;;;;1.00;0.90;;;20.50;94.20;;;;;;5062268;28;20509;-69
2022/05/12 11:42:12;;;;;;;0.90;0.70;;;20.10;93.70;;;;;;5060657;28;20462;-69
2022/05/12 11:45:11;;;;;;;3.10;1.67;;;20.00;94.20;;;;;;5060316;28;20471;-69
2022/05/12 11:48:08;;;;;;;1.10;0.90;;;20.10;94.20;;;;;;5058576;28;20474;-69
2022/05/12 11:51:18;;;;;;;1.13;1.03;;;19.80;94.20;;;;;;5038966;28;20426;-69
2022/05/12 11:54:01;;;;;;;1.23;0.70;;;19.90;92.70;;;;;;4938011;29;20415;-68
2022/05/12 11:56:39;;;;;;;1.03;0.80;;;19.80;91.30;;;;;;5035422;28;20432;-68
2022/05/12 11:59:19;;;;;;;1.10;0.90;;;19.80;91.20;;;;;;5036293;28;20395;-69
2022/05/12 12:01:49;;;;;;;0.80;0.80;;;19.70;93.50;;;;;;5036251;28;20487;-69
2022/05/12 12:04:15;;;;;;;1.23;0.83;;;19.90;92.40;;;;;;5049446;28;20412;-69
2022/05/12 12:06:44;;;;;;;1.80;1.27;;;19.90;92.20;;;;;;5055525;28;20462;-68
2022/05/12 12:09:36;;;;;;;0.80;0.80;;;19.70;92.70;;;;;;5055396;28;20888;-68
2022/05/12 12:12:04;;;;;;;3.30;0.90;;;19.20;92.30;;;;;;5055227;28;20414;-68
2022/05/12 12:14:42;;;;;;;1.20;0.90;;;19.00;93.20;;;;;;5055230;28;20437;-68
2022/05/12 12:17:10;;;;;;;0.93;0.90;;;19.90;93.70;;;;;;5057055;28;20419;-68
2022/05/12 12:19:49;;;;;;;0.83;0.77;;;20.40;92.00;;;;;;5055261;28;20414;-68
2022/05/12 12:22:37;;;;;;;1.07;0.80;;;20.20;92.40;;;;;;5055961;28;20447;-68
2022/05/12 12:25:23;;;;;;;1.17;0.90;;;20.00;93.00;;;;;;5057494;28;20457;-68
2022/05/12 12:27:57;;;;;;;2.23;1.00;;;20.30;93.00;;;;;;5056952;28;20471;-68
2022/05/12 12:30:38;;;;;;;1.10;0.77;;;20.20;93.40;;;;;;5058368;28;20389;-69
2022/05/12 12:33:35;;;;;;;1.20;0.93;;;20.20;93.00;;;;;;5057407;28;20458;-68
2022/05/12 12:36:12;;;;;;;0.80;0.70;;;19.20;91.60;;;;;;5055919;28;20429;-68
2022/05/12 12:38:44;;;;;;;3.63;3.13;;;19.30;93.30;;;;;;5058129;28;20487;-69
2022/05/12 12:41:17;;;;;;;1.30;1.20;;;19.10;93.00;;;;;;5054131;28;20483;-69
2022/05/12 12:43:49;;;;;;;1.03;0.73;;;19.00;93.00;;;;;;5036982;28;20427;-68
2022/05/12 12:46:26;;;;;;;1.40;1.30;;;19.70;93.20;;;;;;5035588;28;20425;-69
2022/05/12 12:48:59;;;;;;;0.70;0.70;;;19.60;92.60;;;;;;5045607;28;20445;-69
2022/05/12 12:51:34;;;;;;;1.23;0.97;;;19.60;91.60;;;;;;5055846;28;20411;-68
2022/05/12 12:56:48;;;;;;;1.23;1.13;;;20.00;92.10;;;;;;5058134;28;20410;-69
2022/05/12 12:59:21;;;;;;;2.43;1.20;;;20.40;91.50;;;;;;5056776;28;20860;-69
2022/05/12 13:01:59;;;;;;;2.10;1.30;;;20.60;90.70;;;;;;5056305;28;20231;-69
2022/05/12 13:04:26;;;;;;;1.00;0.90;;;20.50;91.20;;;;;;5057470;28;20460;-68
2022/05/12 13:07:03;;;;;;;0.87;0.87;;;20.30;91.20;;;;;;5056356;28;20408;-68
2022/05/12 13:09:37;;;;;;;1.10;0.93;;;20.20;89.50;;;;;;5036514;28;20413;-68
2022/05/12 13:12:09;;;;;;;1.57;1.43;;;20.50;89.20;;;;;;5054302;28;20421;-68
2022/05/12 13:14:37;;;;;;;0.77;0.77;;;20.70;89.30;;;;;;5054019;28;20576;-68
2022/05/12 13:17:04;;;;;;;1.37;1.27;;;20.20;88.40;;;;;;5054885;28;20490;-68
2022/05/12 13:19:37;;;;;;;1.80;1.20;;;20.20;89.30;;;;;;5054210;28;20496;-68
2022/05/12 13:22:03;;;;;;;1.73;1.00;;;20.30;88.70;;;;;;5054666;28;20828;-69
2022/05/12 13:24:28;;;;;;;1.50;1.00;;;19.50;86.80;;;;;;5053624;28;20426;-69